Vinnytsia Havryshivka International Airport

Current Flights

Departures
Number Departure To Airline
 PS797 12:55  Tel Aviv  Ukraine International Airlines
Arrivals
Number Arrival From Airline
Info
Name: Vinnytsia Havryshivka International Airport
Identifier:  VIN/UKWW
Local Time:  21. May 12:59
City
Vinnytsia
  Ukraine

Flights per Day
1 flights
Distance: 1,173km (728mi)
Punctuality
91% (0 flights per day delayed)
Delay Average: 11 minutes
Current Weather
 22 C (Humidity: 53%)
  8MPS from 150°
13 knots Gusts

  Scattered clouds at 3,100 feet (944 meter)
  9km (6 mi.)
 METAR UKWW 211230Z 15008G13MPS 120V180 9999 SCT031CB 22/12 Q1008 R13/0///65 TEMPO 17011G16MPS 2100 -TSRA SCT005 BKN015CB

Current Delays

Departures
N/A
Arrivals
N/A

Destinations

Top Destinations
Airport Flights
per week
Seats
per week
  Kiev (KBP) 7 63 1 9
  Tel Aviv (TLV) <1 518 0 74
  Ibiza (IBZ) <1 42 0 6

Airlines & Planes

Top Airlines
Airline Flights
per Day
Seats
per Day
Wings Of Lebanon 1 -
  Ukraine International Airlines <1 80
Windrose Airlines <1 9
Top Plane Types
Manufacturer Model Flights Seats
Embraer ERJ145 1.6/day 9/day 9.6
Boeing B737-800 0.7/day 80/day 80.6